»·PEaware :: SWA2457 KPHX-KSFO

SWA2457 :: KPHX-KSFO

FLIGHT INFORMATION

Flight Status: Arrived
Operator:
Southwest Airlines
More flights by this operator :: More flights under this callsign
Pilot: Garrett E. (679)
Aircraft: BOEING 737-700
(B737)
More flights by this aircraft type
Origin: KPHX Phoenix Sky Harbor Intl
United States
Destination: KSFO San Francisco Intl
United States
More flights between these airports :: More routes between these airports
Route: +IZZZO6 HRRBR CURIV J212 DECAS PMD J6 AVE SERFR SERFR2
File this flight plan on PilotEdge
Remarks:
Altitude:
(Current/Filed)
38,000ft
Speed:
(Current/Filed)
450kts
Departed: 04-Jan-18 03:30 PM
Arrived: 04-Jan-18 05:11 PM
Distance/Time
Traveled:
565nm/1:40
Distance/Time
To Go:
Arrived

Flight Plot

Page will automatically refresh every two minutes.

Flight plan parsing failed; only flown route is shown


Map Options




Map Legend


Flown Route
Filed Route
Departure Airport
Arrival Airport
Navaid (VOR, NDB)
Fix

Horizontal Profiles

Position Reports

Time Latitude Longitude Heading Altitude Ground
Speed
04-Jan-18 15:10 33.434398 -111.996161 270 1143ft 0kts
04-Jan-18 15:11 33.434398 -111.996161 270 1143ft 0kts
04-Jan-18 15:12 33.434398 -111.996161 270 1143ft 0kts
04-Jan-18 15:13 33.434398 -111.996161 270 1143ft 0kts
04-Jan-18 15:14 33.434398 -111.996161 270 1143ft 0kts
04-Jan-18 15:15 33.434398 -111.996161 270 1143ft 0kts
04-Jan-18 15:16 33.434398 -111.996161 270 1143ft 0kts
04-Jan-18 15:17 33.434398 -111.996161 270 1143ft 0kts
04-Jan-18 15:18 33.434398 -111.996161 270 1143ft 0kts
04-Jan-18 15:19 33.434398 -111.996161 270 1143ft 0kts
04-Jan-18 15:20 33.434398 -111.996161 270 1143ft 0kts
04-Jan-18 15:21 33.434398 -111.996161 270 1143ft 0kts
04-Jan-18 15:22 33.434398 -111.996161 270 1143ft 0kts
04-Jan-18 15:23 33.434443 -111.995843 231 1143ft 2kts
04-Jan-18 15:24 33.434505 -111.995766 217 1143ft 0kts
04-Jan-18 15:25 33.434504 -111.995767 217 1143ft 0kts
04-Jan-18 15:26 33.434503 -111.995768 217 1143ft 0kts
04-Jan-18 15:27 33.434498 -111.995772 217 1142ft 0kts
04-Jan-18 15:28 33.433861 -111.995707 177 1142ft 0kts
04-Jan-18 15:29 33.432851 -111.998395 269 1142ft 18kts
04-Jan-18 15:30 33.432120 -112.004408 266 1142ft 11kts
04-Jan-18 15:31 33.432127 -112.010386 270 1143ft 23kts
04-Jan-18 15:32 33.432122 -112.016948 269 1143ft 18kts
04-Jan-18 15:33 33.432125 -112.022978 270 1143ft 16kts
04-Jan-18 15:34 33.431840 -112.026985 179 1142ft 0kts
04-Jan-18 15:35 33.431052 -112.026825 100 1143ft 7kts
04-Jan-18 15:36 33.431023 -112.007529 88 1217ft 149kts
04-Jan-18 15:37 33.432162 -111.953480 87 3595ft 191kts
04-Jan-18 15:38 33.429952 -111.878807 116 6144ft 241kts
04-Jan-18 15:39 33.369216 -111.847313 201 9168ft 289kts
04-Jan-18 15:40 33.339030 -111.931156 288 11911ft 327kts
04-Jan-18 15:41 33.364114 -112.040744 285 15227ft 353kts
04-Jan-18 15:42 33.386976 -112.157563 283 18519ft 370kts
04-Jan-18 15:43 33.405854 -112.281124 282 21545ft 383kts
04-Jan-18 15:44 33.423912 -112.408948 281 23930ft 394kts
04-Jan-18 15:45 33.441920 -112.540512 281 26263ft 405kts
04-Jan-18 15:46 33.451343 -112.676501 273 28237ft 418kts
04-Jan-18 15:47 33.456504 -112.816286 282 29975ft 422kts
04-Jan-18 15:48 33.481610 -112.954943 285 31514ft 426kts
04-Jan-18 15:49 33.507006 -113.091981 284 33401ft 419kts
04-Jan-18 15:50 33.532441 -113.227415 284 34973ft 414kts
04-Jan-18 15:51 33.557031 -113.361417 283 36331ft 410kts
04-Jan-18 15:52 33.581198 -113.494476 283 37515ft 408kts
04-Jan-18 15:53 33.606127 -113.627583 283 38152ft 410kts
04-Jan-18 15:54 33.630577 -113.759993 283 38156ft 404kts
04-Jan-18 15:55 33.654823 -113.891909 283 38163ft 405kts
04-Jan-18 15:56 33.678990 -114.024226 283 38156ft 405kts
04-Jan-18 15:57 33.702932 -114.156279 283 38157ft 405kts
04-Jan-18 15:58 33.727347 -114.288678 283 38156ft 405kts
04-Jan-18 15:59 33.751049 -114.420817 282 38154ft 405kts
04-Jan-18 16:00 33.773508 -114.553249 277 38152ft 405kts
04-Jan-18 16:01 33.781622 -114.688876 274 38152ft 406kts
04-Jan-18 16:02 33.789037 -114.824072 274 38151ft 405kts
04-Jan-18 16:03 33.796468 -114.959155 274 38153ft 405kts
04-Jan-18 16:04 33.804373 -115.094679 274 38157ft 405kts
04-Jan-18 16:05 33.811841 -115.229755 274 38158ft 405kts
04-Jan-18 16:06 33.818899 -115.365246 274 38158ft 404kts
04-Jan-18 16:07 33.838123 -115.497416 288 38158ft 404kts
04-Jan-18 16:08 33.877763 -115.623667 289 38159ft 404kts
04-Jan-18 16:09 33.917952 -115.750320 289 38163ft 404kts
04-Jan-18 16:10 33.958126 -115.876422 290 38170ft 404kts
04-Jan-18 16:11 33.998495 -116.002511 289 38184ft 404kts
04-Jan-18 16:12 34.038756 -116.129242 289 38201ft 404kts
04-Jan-18 16:13 34.078694 -116.255654 289 38211ft 404kts
04-Jan-18 16:14 34.118632 -116.382648 289 38216ft 404kts
04-Jan-18 16:15 34.158296 -116.509325 289 38228ft 404kts
04-Jan-18 16:16 34.197795 -116.636020 288 38258ft 403kts
04-Jan-18 16:17 34.237252 -116.763119 288 38298ft 403kts
04-Jan-18 16:18 34.276232 -116.889194 286 38333ft 399kts
04-Jan-18 16:19 34.314952 -117.015002 286 38310ft 400kts
04-Jan-18 16:20 34.353697 -117.141421 286 38256ft 400kts
04-Jan-18 16:21 34.392218 -117.267636 286 38211ft 400kts
04-Jan-18 16:22 34.430769 -117.394502 286 38187ft 400kts
04-Jan-18 16:23 34.469042 -117.520998 286 38190ft 400kts
04-Jan-18 16:24 34.507205 -117.647675 286 38185ft 400kts
04-Jan-18 16:25 34.545599 -117.774891 286 38194ft 401kts
04-Jan-18 16:26 34.583460 -117.901902 285 38191ft 400kts
04-Jan-18 16:27 34.621600 -118.028752 289 38196ft 402kts
04-Jan-18 16:28 34.686694 -118.142036 303 38196ft 412kts
04-Jan-18 16:29 34.760010 -118.249257 303 38190ft 413kts
04-Jan-18 16:30 34.834154 -118.356575 304 38202ft 414kts
04-Jan-18 16:31 34.908106 -118.463954 303 38220ft 414kts
04-Jan-18 16:32 34.981784 -118.571584 303 38237ft 414kts
04-Jan-18 16:33 35.045807 -118.686776 294 38235ft 407kts
04-Jan-18 16:34 35.102379 -118.806622 294 38226ft 408kts
04-Jan-18 16:35 35.158973 -118.927051 293 38201ft 408kts
04-Jan-18 16:36 35.206116 -119.027095 294 38179ft 408kts
04-Jan-18 16:37 35.262742 -119.147428 293 38167ft 408kts
04-Jan-18 16:38 35.319277 -119.268337 293 38166ft 408kts
04-Jan-18 16:39 35.384923 -119.409381 293 38170ft 408kts
04-Jan-18 16:40 35.431695 -119.510257 293 38174ft 408kts
04-Jan-18 16:41 35.487909 -119.631886 292 38163ft 409kts
04-Jan-18 16:42 35.544002 -119.753203 292 38162ft 409kts
04-Jan-18 16:43 35.599728 -119.874979 292 38164ft 410kts
04-Jan-18 16:44 35.653361 -119.998432 285 38168ft 404kts
04-Jan-18 16:45 35.693233 -120.127183 284 38166ft 403kts
04-Jan-18 16:46 35.732888 -120.256581 284 38167ft 403kts
04-Jan-18 16:47 35.772389 -120.385577 284 38166ft 403kts
04-Jan-18 16:48 35.812160 -120.514402 284 38168ft 403kts
04-Jan-18 16:49 35.851770 -120.643998 284 38168ft 403kts
04-Jan-18 16:50 35.891081 -120.773424 284 38166ft 404kts
04-Jan-18 16:51 35.930327 -120.903282 283 38164ft 403kts
04-Jan-18 16:52 35.969511 -121.032953 283 38160ft 404kts
04-Jan-18 16:53 36.008400 -121.162713 282 36893ft 402kts
04-Jan-18 16:54 36.047046 -121.292922 281 34174ft 401kts
04-Jan-18 16:55 36.118044 -121.400934 314 31955ft 427kts
04-Jan-18 16:56 36.217051 -121.480525 317 29876ft 420kts
04-Jan-18 16:57 36.314967 -121.557120 318 27767ft 410kts
04-Jan-18 16:58 36.410003 -121.631884 319 25697ft 399kts
04-Jan-18 16:59 36.502593 -121.704870 319 23664ft 390kts
04-Jan-18 17:00 36.593180 -121.776332 320 21658ft 380kts
04-Jan-18 17:01 36.681198 -121.846221 320 19675ft 371kts
04-Jan-18 17:02 36.773393 -121.903312 340 17754ft 373kts
04-Jan-18 17:03 36.873282 -121.931026 342 15942ft 362kts
04-Jan-18 17:04 36.969698 -121.958841 339 14223ft 340kts
04-Jan-18 17:05 37.054199 -121.992378 337 12551ft 309kts
04-Jan-18 17:06 37.134633 -122.024203 338 10403ft 303kts
04-Jan-18 17:07 37.213781 -122.055359 339 8933ft 293kts
04-Jan-18 17:08 37.291554 -122.085962 339 7311ft 291kts
04-Jan-18 17:09 37.367087 -122.115648 340 6103ft 272kts
04-Jan-18 17:10 37.435775 -122.142641 340 4667ft 239kts
04-Jan-18 17:11 37.500462 -122.159857 353 3185ft 230kts
04-Jan-18 17:12 37.543250 -122.198825 299 2821ft 177kts
04-Jan-18 17:13 37.565571 -122.248504 295 1949ft 152kts
04-Jan-18 17:14 37.584867 -122.294358 297 1163ft 145kts
04-Jan-18 17:15 37.603633 -122.339358 299 394ft 143kts
04-Jan-18 17:16 37.619100 -122.375877 297 21ft 52kts
04-Jan-18 17:17 37.618369 -122.379754 157 21ft 13kts
04-Jan-18 17:18 37.614083 -122.381343 209 21ft 19kts
04-Jan-18 17:19 37.611430 -122.384505 284 21ft 1kts
04-Jan-18 17:20 37.612633 -122.384665 3 21ft 0kts
04-Jan-18 17:21 37.612633 -122.384665 3 21ft 0kts

Navigation Log

Ident Type
Flight plan parsing failed, navigation log unavailable